Time;durP1;ratioP1;P1;durP2;ratioP2;P2;SDS_P1;SDS_P2;PMS_P1;PMS_P2;Temp;Humidity;BMP_temperature;BMP_pressure;BME280_temperature;BME280_humidity;BME280_pressure;Samples;Min_cycle;Max_cycle;Signal;HPM_P1;HPM_P2
2022/05/05 00:01:22;;;;;;;16.13;8.07;;;5.60;99.90;;;;;;5038667;28;20112;-78
2022/05/05 00:03:48;;;;;;;15.27;8.07;;;5.60;99.90;;;;;;5042719;28;20053;-78
2022/05/05 00:06:14;;;;;;;19.20;8.70;;;5.60;99.90;;;;;;5025848;28;20128;-78
2022/05/05 00:08:40;;;;;;;18.33;8.38;;;5.60;99.90;;;;;;5009954;28;20053;-78
2022/05/05 00:16:34;;;;;;;16.65;7.30;;;5.80;99.90;;;;;;5042428;28;20155;-78
2022/05/05 00:19:01;;;;;;;16.20;7.97;;;5.70;99.90;;;;;;5042331;28;20088;-78
2022/05/05 00:21:26;;;;;;;21.65;8.55;;;5.70;99.90;;;;;;5042704;28;20054;-78
2022/05/05 00:23:52;;;;;;;17.50;8.32;;;5.70;99.90;;;;;;5043192;28;20048;-77
2022/05/05 00:26:17;;;;;;;19.00;8.20;;;5.70;99.90;;;;;;5042492;28;20477;-78
2022/05/05 00:28:43;;;;;;;13.75;7.95;;;5.70;99.90;;;;;;5042696;28;20149;-78
2022/05/05 00:31:09;;;;;;;19.23;8.02;;;5.70;99.90;;;;;;5041361;28;20151;-79
2022/05/05 00:33:34;;;;;;;16.00;7.85;;;5.70;99.90;;;;;;5042430;28;20187;-78
2022/05/05 00:36:00;;;;;;;12.75;8.20;;;5.80;99.90;;;;;;5041406;28;20096;-78
2022/05/05 00:38:26;;;;;;;19.27;7.63;;;5.80;99.90;;;;;;5042392;28;20449;-78
2022/05/05 00:40:51;;;;;;;13.90;7.50;;;5.70;99.90;;;;;;5041700;28;20111;-78
2022/05/05 00:43:17;;;;;;;14.55;7.43;;;5.80;99.90;;;;;;5041639;28;20132;-78
2022/05/05 00:45:43;;;;;;;15.93;7.25;;;5.80;99.90;;;;;;5041575;28;20053;-78
2022/05/05 00:48:12;;;;;;;16.10;7.65;;;5.80;99.90;;;;;;5025257;28;20046;-78
2022/05/05 00:50:38;;;;;;;18.58;7.47;;;6.00;99.90;;;;;;5025297;28;20137;-78
2022/05/05 00:53:04;;;;;;;13.55;7.20;;;5.90;99.90;;;;;;5041876;28;20129;-78
2022/05/05 00:55:34;;;;;;;16.63;7.30;;;5.90;99.90;;;;;;5041248;28;20049;-78
2022/05/05 00:58:01;;;;;;;22.65;8.02;;;5.90;99.90;;;;;;5042004;28;20057;-78
2022/05/05 01:00:27;;;;;;;15.60;6.90;;;5.90;99.90;;;;;;5040831;28;20125;-77
2022/05/05 01:02:54;;;;;;;14.43;6.40;;;6.00;99.90;;;;;;5041241;28;20124;-77
2022/05/05 01:05:20;;;;;;;14.95;7.20;;;6.00;99.90;;;;;;5041686;28;20037;-77
2022/05/05 01:07:47;;;;;;;15.80;7.30;;;6.00;99.90;;;;;;5041650;28;20873;-78
2022/05/05 01:10:13;;;;;;;13.45;7.07;;;6.10;99.90;;;;;;5041060;28;20081;-78
2022/05/05 01:12:39;;;;;;;11.57;7.05;;;6.00;99.90;;;;;;5041322;28;20109;-78
2022/05/05 01:15:05;;;;;;;13.18;7.45;;;6.10;99.90;;;;;;5040442;28;20061;-78
2022/05/05 01:17:31;;;;;;;19.42;7.80;;;6.10;99.90;;;;;;5040549;28;20042;-78
2022/05/05 01:19:56;;;;;;;13.23;6.68;;;6.10;99.90;;;;;;5041197;28;20488;-78
2022/05/05 01:22:25;;;;;;;11.05;6.93;;;6.10;99.90;;;;;;5041774;28;20088;-79
2022/05/05 01:30:20;;;;;;;21.20;7.05;;;6.20;99.90;;;;;;5039896;28;20056;-78
2022/05/05 01:32:45;;;;;;;15.13;7.45;;;6.20;99.90;;;;;;5040858;28;20087;-78
2022/05/05 01:35:11;;;;;;;15.82;6.63;;;6.10;99.90;;;;;;5041278;28;20073;-78
2022/05/05 01:37:37;;;;;;;19.55;7.35;;;6.20;99.90;;;;;;5041160;28;20057;-78
2022/05/05 01:40:03;;;;;;;20.05;7.43;;;6.20;99.90;;;;;;5040892;28;20484;-78
2022/05/05 01:42:28;;;;;;;16.30;7.28;;;6.20;99.90;;;;;;5041712;28;20057;-79
2022/05/05 01:44:54;;;;;;;16.58;7.20;;;6.20;99.90;;;;;;5022814;28;20048;-79
2022/05/05 01:47:19;;;;;;;13.95;6.93;;;6.20;99.90;;;;;;5040425;28;20056;-78
2022/05/05 01:49:46;;;;;;;13.30;6.63;;;6.20;99.90;;;;;;5040560;28;20077;-79
2022/05/05 01:52:12;;;;;;;13.60;5.90;;;6.20;99.90;;;;;;5039896;28;20425;-79
2022/05/05 01:54:38;;;;;;;12.25;6.78;;;6.20;99.90;;;;;;5009306;28;20044;-78
2022/05/05 01:57:04;;;;;;;20.25;7.10;;;6.30;99.90;;;;;;5009238;28;20548;-78
2022/05/05 01:59:30;;;;;;;13.05;5.88;;;6.20;99.90;;;;;;5039774;28;20092;-78
2022/05/05 02:01:56;;;;;;;15.25;7.43;;;6.30;99.90;;;;;;5023561;28;20478;-78
2022/05/05 02:04:22;;;;;;;16.38;7.10;;;6.30;99.90;;;;;;5040591;28;20057;-77
2022/05/05 02:06:47;;;;;;;19.70;7.20;;;6.20;99.90;;;;;;5040166;28;20049;-78
2022/05/05 02:09:13;;;;;;;15.40;6.40;;;6.20;99.90;;;;;;5040892;28;20456;-78
2022/05/05 02:11:41;;;;;;;19.52;6.70;;;6.20;99.90;;;;;;5040326;28;20054;-78
2022/05/05 02:14:07;;;;;;;14.88;6.28;;;6.20;99.90;;;;;;5039543;28;20054;-77
2022/05/05 02:16:33;;;;;;;20.00;7.03;;;6.20;99.90;;;;;;5039905;28;20452;-78
2022/05/05 02:18:59;;;;;;;12.02;6.55;;;6.20;99.90;;;;;;5040823;28;20042;-77
2022/05/05 02:21:24;;;;;;;17.75;6.88;;;6.20;99.90;;;;;;5039796;28;20489;-78
2022/05/05 02:23:50;;;;;;;16.67;6.63;;;6.20;99.90;;;;;;5040170;28;20568;-78
2022/05/05 02:26:16;;;;;;;13.15;5.90;;;6.10;99.90;;;;;;5039526;28;20099;-78
2022/05/05 02:28:41;;;;;;;18.35;6.57;;;6.10;99.90;;;;;;5039374;28;20066;-78
2022/05/05 02:31:07;;;;;;;19.83;7.10;;;6.10;99.90;;;;;;5038772;28;20104;-77
2022/05/05 02:33:32;;;;;;;11.65;6.50;;;6.00;99.90;;;;;;5039540;28;20046;-77
2022/05/05 02:38:42;;;;;;;17.13;7.82;;;6.00;99.90;;;;;;5040621;28;20049;-77
2022/05/05 02:41:08;;;;;;;15.77;7.45;;;6.00;99.90;;;;;;5038697;28;20046;-78
2022/05/05 02:43:33;;;;;;;18.02;7.40;;;5.90;99.90;;;;;;5040139;28;20038;-77
2022/05/05 02:45:59;;;;;;;12.43;6.38;;;5.90;99.90;;;;;;5039474;28;20072;-78
2022/05/05 02:48:25;;;;;;;16.83;7.43;;;5.90;99.90;;;;;;5039653;28;20516;-77
2022/05/05 02:50:50;;;;;;;16.10;7.38;;;5.80;99.90;;;;;;5039320;28;20533;-78
2022/05/05 02:56:00;;;;;;;16.60;7.45;;;5.90;99.90;;;;;;5039034;28;20104;-78
2022/05/05 02:58:28;;;;;;;17.50;7.25;;;5.90;99.90;;;;;;5023263;28;20489;-78
2022/05/05 03:00:54;;;;;;;19.77;7.30;;;5.90;99.90;;;;;;5022464;28;20081;-77
2022/05/05 03:03:20;;;;;;;16.45;7.13;;;5.90;99.90;;;;;;5039169;28;20103;-78
2022/05/05 03:05:46;;;;;;;15.23;7.18;;;5.90;99.90;;;;;;5039293;28;20050;-77
2022/05/05 03:08:12;;;;;;;15.00;7.18;;;5.90;99.90;;;;;;5040074;28;20053;-77
2022/05/05 03:10:38;;;;;;;19.25;7.28;;;5.90;99.90;;;;;;5022682;28;20038;-78
2022/05/05 03:13:04;;;;;;;13.93;6.80;;;6.00;99.90;;;;;;5023114;28;20128;-78
2022/05/05 03:15:30;;;;;;;17.35;7.47;;;6.00;99.90;;;;;;5038822;28;20470;-77
2022/05/05 03:17:56;;;;;;;13.85;7.10;;;6.00;99.90;;;;;;5038810;28;20085;-77
2022/05/05 03:20:21;;;;;;;16.27;7.68;;;5.90;99.90;;;;;;5023316;28;20049;-77
2022/05/05 03:22:47;;;;;;;16.73;7.45;;;6.00;99.90;;;;;;5038826;28;20050;-77
2022/05/05 03:25:13;;;;;;;16.52;7.82;;;6.00;99.90;;;;;;5023010;28;20053;-78
2022/05/05 03:27:39;;;;;;;12.10;7.03;;;5.90;99.90;;;;;;5039716;28;20056;-78
2022/05/05 03:30:06;;;;;;;15.77;6.63;;;6.00;99.90;;;;;;5037897;28;20049;-78
2022/05/05 03:32:33;;;;;;;17.90;6.78;;;6.00;99.90;;;;;;5039173;28;20065;-78
2022/05/05 03:34:59;;;;;;;22.27;7.22;;;6.00;99.90;;;;;;5022597;28;20046;-77
2022/05/05 03:37:30;;;;;;;14.25;6.55;;;6.00;99.90;;;;;;5040836;28;20041;-79
2022/05/05 03:39:56;;;;;;;17.13;7.00;;;6.00;99.90;;;;;;5026747;28;20108;-78
2022/05/05 03:42:21;;;;;;;15.60;7.43;;;6.10;99.90;;;;;;5043783;28;20084;-78
2022/05/05 03:44:47;;;;;;;18.45;7.70;;;6.10;99.90;;;;;;5008610;28;20089;-78
2022/05/05 03:47:13;;;;;;;14.60;7.40;;;6.20;99.90;;;;;;5044087;28;20475;-78
2022/05/05 03:49:38;;;;;;;13.32;7.65;;;6.20;99.90;;;;;;5011810;28;20064;-77
2022/05/05 03:52:05;;;;;;;13.55;7.00;;;6.30;99.90;;;;;;5042294;28;20115;-78
2022/05/05 03:54:31;;;;;;;18.92;7.80;;;6.30;99.90;;;;;;5027006;28;20077;-78
2022/05/05 03:56:56;;;;;;;22.95;9.00;;;6.30;99.90;;;;;;5009550;28;20092;-77
2022/05/05 03:59:22;;;;;;;18.30;8.07;;;6.30;99.90;;;;;;5026279;28;20050;-78
2022/05/05 04:01:49;;;;;;;18.77;9.23;;;6.40;99.90;;;;;;5042219;28;20042;-78
2022/05/05 04:04:16;;;;;;;14.65;8.13;;;6.40;99.90;;;;;;5043931;28;20058;-78
2022/05/05 04:06:42;;;;;;;18.35;8.18;;;6.50;99.90;;;;;;5042809;28;20068;-78
2022/05/05 04:09:08;;;;;;;15.50;7.97;;;6.50;99.90;;;;;;5042405;28;20099;-77
2022/05/05 04:11:34;;;;;;;13.13;7.28;;;6.50;99.90;;;;;;5043369;28;20046;-77
2022/05/05 04:14:00;;;;;;;20.33;8.85;;;6.50;99.90;;;;;;5025021;28;20210;-78
2022/05/05 04:16:26;;;;;;;17.25;9.13;;;6.60;99.90;;;;;;5043002;28;20053;-78
2022/05/05 04:18:51;;;;;;;18.17;10.40;;;6.60;99.90;;;;;;5042565;28;20060;-78
2022/05/05 04:21:17;;;;;;;15.95;9.57;;;7.00;99.90;;;;;;5008677;28;20050;-77
2022/05/05 04:23:42;;;;;;;19.08;9.13;;;6.60;99.90;;;;;;5043246;28;20048;-77
2022/05/05 04:26:12;;;;;;;15.63;9.02;;;6.70;99.90;;;;;;5041442;28;20053;-78
2022/05/05 04:28:39;;;;;;;19.20;9.57;;;6.70;99.90;;;;;;5011281;28;20049;-77
2022/05/05 04:31:04;;;;;;;17.77;10.18;;;6.80;99.90;;;;;;5029121;28;20057;-79
2022/05/05 04:33:30;;;;;;;16.33;8.65;;;6.80;99.90;;;;;;5021360;28;20049;-78
2022/05/05 04:35:56;;;;;;;13.27;8.90;;;6.80;99.90;;;;;;5025234;28;20049;-79
2022/05/05 04:38:21;;;;;;;16.73;8.98;;;6.80;99.90;;;;;;5025758;28;20073;-78
2022/05/05 04:40:49;;;;;;;20.48;9.63;;;6.90;99.90;;;;;;5040882;28;20049;-78
2022/05/05 04:43:15;;;;;;;17.70;9.07;;;6.90;99.90;;;;;;5042148;28;20501;-78
2022/05/05 04:45:41;;;;;;;22.20;9.40;;;6.90;99.90;;;;;;5041406;28;20044;-78
2022/05/05 04:48:07;;;;;;;16.58;9.65;;;7.00;99.90;;;;;;5040381;28;20060;-79
2022/05/05 04:50:33;;;;;;;15.38;8.00;;;7.00;99.90;;;;;;5040992;28;20048;-78
2022/05/05 04:52:58;;;;;;;18.02;9.23;;;7.00;99.90;;;;;;5010009;28;20125;-78
2022/05/05 04:55:24;;;;;;;17.10;8.52;;;7.00;99.90;;;;;;5040783;28;20104;-78
2022/05/05 04:57:49;;;;;;;22.92;8.30;;;7.10;99.90;;;;;;5024893;28;20050;-79
2022/05/05 05:00:16;;;;;;;20.73;9.00;;;7.10;99.90;;;;;;5024780;28;20096;-78
2022/05/05 05:02:42;;;;;;;22.02;8.68;;;7.20;99.90;;;;;;5040860;28;20125;-78
2022/05/05 05:05:08;;;;;;;25.45;9.65;;;7.20;99.90;;;;;;5047669;28;20554;-79
2022/05/05 05:07:34;;;;;;;18.17;8.38;;;7.20;99.90;;;;;;5031623;28;20084;-78
2022/05/05 05:09:59;;;;;;;14.35;8.45;;;7.30;99.90;;;;;;5026928;28;20179;-78
2022/05/05 05:12:25;;;;;;;17.27;8.90;;;7.30;99.90;;;;;;5029743;28;20057;-79
2022/05/05 05:14:51;;;;;;;27.27;10.27;;;7.40;99.90;;;;;;5026564;28;20051;-78
2022/05/05 05:17:16;;;;;;;38.03;9.82;;;7.40;99.90;;;;;;5026956;28;20053;-78
2022/05/05 05:19:42;;;;;;;22.80;9.85;;;7.50;99.90;;;;;;5028995;28;20493;-79
2022/05/05 05:22:07;;;;;;;23.92;9.93;;;7.50;99.90;;;;;;5027100;28;20396;-79
2022/05/05 05:24:33;;;;;;;21.20;9.75;;;7.50;99.90;;;;;;5027871;28;20037;-79
2022/05/05 05:26:59;;;;;;;17.77;9.98;;;7.60;99.90;;;;;;5027667;28;20048;-79
2022/05/05 05:29:24;;;;;;;17.38;9.60;;;7.60;99.90;;;;;;5025204;28;20049;-79
2022/05/05 05:31:50;;;;;;;23.95;9.40;;;7.90;99.90;;;;;;5008074;28;20615;-79
2022/05/05 05:34:16;;;;;;;19.42;10.45;;;7.70;99.90;;;;;;5026105;28;20084;-78
2022/05/05 05:36:41;;;;;;;24.52;10.90;;;7.80;99.90;;;;;;5023758;28;20828;-79
2022/05/05 05:39:07;;;;;;;15.10;10.32;;;7.80;99.90;;;;;;5024343;28;20077;-79
2022/05/05 05:41:32;;;;;;;21.13;9.88;;;7.80;99.90;;;;;;5024797;28;20073;-80
2022/05/05 05:43:58;;;;;;;20.20;9.52;;;7.90;99.90;;;;;;5026559;28;20132;-79
2022/05/05 05:46:24;;;;;;;20.45;11.68;;;8.00;99.90;;;;;;5027815;28;20115;-79
2022/05/05 05:48:49;;;;;;;21.23;9.95;;;8.00;99.90;;;;;;5027093;28;20060;-79
2022/05/05 05:51:15;;;;;;;20.80;10.38;;;8.00;99.90;;;;;;5043167;28;20045;-79
2022/05/05 05:53:41;;;;;;;19.73;9.88;;;8.10;99.90;;;;;;5027481;28;20504;-79
2022/05/05 05:56:06;;;;;;;19.40;9.80;;;8.20;99.90;;;;;;5009983;28;20136;-78
2022/05/05 05:58:37;;;;;;;16.13;9.40;;;8.20;99.90;;;;;;5026540;28;20048;-79
2022/05/05 06:01:02;;;;;;;23.42;9.68;;;8.30;99.90;;;;;;5021323;28;20084;-78
2022/05/05 06:06:12;;;;;;;20.80;8.82;;;8.40;99.90;;;;;;5025441;28;20556;-78
2022/05/05 06:08:38;;;;;;;20.13;8.80;;;8.50;99.90;;;;;;5027692;28;20128;-78
2022/05/05 06:11:04;;;;;;;18.60;9.10;;;8.60;99.90;;;;;;5026219;28;20049;-79
2022/05/05 06:13:30;;;;;;;19.80;8.52;;;8.80;99.90;;;;;;5028075;28;20042;-79
2022/05/05 06:15:55;;;;;;;23.75;9.88;;;8.80;99.90;;;;;;5026124;28;20057;-79
2022/05/05 06:18:21;;;;;;;20.20;8.23;;;8.90;99.90;;;;;;5026799;28;20432;-78
2022/05/05 06:20:47;;;;;;;17.83;8.13;;;9.00;99.90;;;;;;5026090;28;20492;-78
2022/05/05 06:23:13;;;;;;;17.60;8.35;;;9.40;99.90;;;;;;5026170;28;20055;-79
2022/05/05 06:25:40;;;;;;;17.55;7.95;;;9.00;99.90;;;;;;5026205;28;20044;-78
2022/05/05 06:28:06;;;;;;;18.50;7.32;;;9.10;99.90;;;;;;5027446;28;20128;-79
2022/05/05 06:30:31;;;;;;;15.18;7.47;;;9.20;99.90;;;;;;5025835;28;20825;-79
2022/05/05 06:32:57;;;;;;;14.88;7.55;;;9.20;99.90;;;;;;5006471;28;20071;-79
2022/05/05 06:35:23;;;;;;;15.00;8.40;;;9.30;99.90;;;;;;5052064;28;20397;-79
2022/05/05 06:37:50;;;;;;;22.48;8.95;;;9.40;99.90;;;;;;5026071;28;20080;-78
2022/05/05 06:40:16;;;;;;;20.20;8.40;;;9.40;99.90;;;;;;5025914;28;20519;-79
2022/05/05 06:42:42;;;;;;;17.50;8.20;;;9.50;99.90;;;;;;5026248;28;20046;-79
2022/05/05 06:45:08;;;;;;;18.95;8.68;;;9.50;99.90;;;;;;5026384;28;20088;-79
2022/05/05 06:47:33;;;;;;;21.42;9.00;;;9.60;99.90;;;;;;5025267;28;20045;-79
2022/05/05 06:49:59;;;;;;;17.02;9.15;;;9.60;99.90;;;;;;5010192;28;20386;-79
2022/05/05 06:52:26;;;;;;;19.63;8.27;;;9.70;99.90;;;;;;5027362;28;20053;-79
2022/05/05 06:54:51;;;;;;;22.13;8.52;;;9.80;99.90;;;;;;5025598;28;20038;-80
2022/05/05 06:57:17;;;;;;;23.52;8.27;;;9.90;99.90;;;;;;5026902;28;20106;-78
2022/05/05 06:59:43;;;;;;;20.45;8.55;;;10.20;99.90;;;;;;5026690;28;20057;-79
2022/05/05 07:02:08;;;;;;;18.83;7.75;;;10.00;99.90;;;;;;5008949;28;20493;-80
2022/05/05 07:07:21;;;;;;;18.92;8.35;;;10.20;99.90;;;;;;5026437;28;20553;-80
2022/05/05 07:12:32;;;;;;;19.60;8.48;;;10.40;99.90;;;;;;5018472;28;20112;-80
2022/05/05 07:14:58;;;;;;;13.00;7.90;;;10.50;99.90;;;;;;5042501;28;20168;-80
2022/05/05 07:17:25;;;;;;;19.40;8.75;;;10.60;99.90;;;;;;5027282;28;20049;-80
2022/05/05 07:19:51;;;;;;;15.40;8.20;;;10.70;99.90;;;;;;5043395;28;20133;-80
2022/05/05 07:22:17;;;;;;;19.23;8.55;;;10.80;99.90;;;;;;5043171;28;20060;-80
2022/05/05 07:24:43;;;;;;;14.45;7.75;;;11.30;99.90;;;;;;5044037;28;20227;-79
2022/05/05 07:27:10;;;;;;;18.08;8.57;;;11.00;99.90;;;;;;5043382;28;20049;-80
2022/05/05 07:29:37;;;;;;;14.25;7.53;;;11.10;99.90;;;;;;5042687;28;20050;-80
2022/05/05 07:32:04;;;;;;;16.45;8.05;;;11.20;99.90;;;;;;5042887;28;20148;-79
2022/05/05 07:34:30;;;;;;;17.73;7.40;;;11.20;99.90;;;;;;5043569;28;20053;-80
2022/05/05 07:36:56;;;;;;;13.90;7.50;;;11.30;99.90;;;;;;5042607;28;20393;-79
2022/05/05 07:39:22;;;;;;;19.10;8.00;;;11.40;99.90;;;;;;5010254;28;20038;-80
2022/05/05 07:41:49;;;;;;;14.95;6.93;;;11.50;99.90;;;;;;5042926;28;20471;-80
2022/05/05 07:44:15;;;;;;;17.50;7.22;;;11.50;99.90;;;;;;5026293;28;20054;-79
2022/05/05 07:46:42;;;;;;;14.63;7.20;;;11.60;99.90;;;;;;5026360;28;20041;-80
2022/05/05 07:49:07;;;;;;;17.92;6.45;;;11.80;99.90;;;;;;5043929;28;20085;-79
2022/05/05 07:51:34;;;;;;;12.70;6.30;;;11.80;99.90;;;;;;5042885;28;20458;-79
2022/05/05 07:56:44;;;;;;;20.38;6.18;;;12.40;99.90;;;;;;5011959;28;20045;-79
2022/05/05 07:59:11;;;;;;;14.63;6.18;;;12.10;99.90;;;;;;5042926;28;20050;-79
2022/05/05 08:01:37;;;;;;;20.05;5.70;;;12.30;99.90;;;;;;5042422;28;20405;-79
2022/05/05 08:04:04;;;;;;;27.73;5.50;;;12.30;99.90;;;;;;5025721;28;20045;-79
2022/05/05 08:06:30;;;;;;;15.93;5.40;;;12.40;99.90;;;;;;5043292;28;20046;-79
2022/05/05 08:08:56;;;;;;;15.45;5.68;;;12.60;99.90;;;;;;5026451;28;20064;-80
2022/05/05 08:11:22;;;;;;;22.20;6.28;;;12.70;99.90;;;;;;5025546;28;20473;-79
2022/05/05 08:13:48;;;;;;;19.70;5.80;;;13.00;99.90;;;;;;5042908;28;20061;-79
2022/05/05 08:16:13;;;;;;;20.92;5.88;;;12.90;99.90;;;;;;5042182;28;20056;-80
2022/05/05 08:18:39;;;;;;;17.25;5.30;;;13.10;99.90;;;;;;5025752;28;20049;-79
2022/05/05 08:21:06;;;;;;;12.70;4.70;;;13.20;99.90;;;;;;5042783;28;20053;-79
2022/05/05 08:23:33;;;;;;;15.52;5.25;;;13.30;99.90;;;;;;5043080;28;20512;-79
2022/05/05 08:28:43;;;;;;;13.23;4.47;;;13.60;99.90;;;;;;5043014;28;20188;-80
2022/05/05 08:31:10;;;;;;;10.65;4.43;;;13.90;99.90;;;;;;5024108;28;20125;-79
2022/05/05 08:33:36;;;;;;;16.23;4.32;;;13.90;99.90;;;;;;5041460;28;20053;-79
2022/05/05 08:36:02;;;;;;;14.35;3.90;;;14.00;99.90;;;;;;5041538;28;20038;-80
2022/05/05 08:38:28;;;;;;;12.70;4.55;;;14.00;99.90;;;;;;5025332;28;20053;-79
2022/05/05 08:40:54;;;;;;;16.55;4.45;;;14.10;99.90;;;;;;5024233;28;20038;-80
2022/05/05 08:43:20;;;;;;;9.70;3.72;;;14.20;99.90;;;;;;5042368;28;20061;-80
2022/05/05 08:45:48;;;;;;;14.02;4.35;;;14.30;99.90;;;;;;5041432;28;20054;-80
2022/05/05 08:48:13;;;;;;;14.88;4.30;;;14.40;99.90;;;;;;5041613;28;20135;-79
2022/05/05 08:50:41;;;;;;;13.40;4.50;;;14.50;99.90;;;;;;5042273;28;20104;-79
2022/05/05 08:53:07;;;;;;;12.93;4.75;;;14.50;99.90;;;;;;5025086;28;20133;-79
2022/05/05 08:55:34;;;;;;;16.02;4.90;;;14.60;99.90;;;;;;5041495;28;20097;-79
2022/05/05 08:58:01;;;;;;;19.38;4.55;;;14.70;99.90;;;;;;5042070;28;20075;-79
2022/05/05 09:00:27;;;;;;;10.93;3.92;;;14.80;99.90;;;;;;5023573;28;20171;-79
2022/05/05 09:02:54;;;;;;;10.07;4.07;;;14.90;99.90;;;;;;5041602;28;20576;-79
2022/05/05 09:05:43;;;;;;;14.30;4.78;;;15.00;99.90;;;;;;5041683;28;20034;-79
2022/05/05 09:08:25;;;;;;;15.10;3.85;;;15.10;99.90;;;;;;5007522;28;20046;-79
2022/05/05 09:10:53;;;;;;;12.10;4.05;;;15.20;99.90;;;;;;5041593;28;20053;-79
2022/05/05 09:13:24;;;;;;;9.40;4.03;;;15.30;99.90;;;;;;5025200;28;20112;-79
2022/05/05 09:15:50;;;;;;;11.60;3.92;;;15.40;99.90;;;;;;5039948;28;20520;-79
2022/05/05 09:18:18;;;;;;;10.65;3.50;;;15.50;99.90;;;;;;5041760;28;20085;-79
2022/05/05 09:20:46;;;;;;;8.90;3.60;;;15.60;99.90;;;;;;5041819;28;20506;-79
2022/05/05 09:23:31;;;;;;;12.13;4.15;;;15.70;99.90;;;;;;5040872;28;20125;-79
2022/05/05 09:25:58;;;;;;;9.48;3.85;;;15.80;99.90;;;;;;5040873;28;20133;-78
2022/05/05 09:28:32;;;;;;;10.80;3.97;;;15.80;99.90;;;;;;5008605;28;20073;-79
2022/05/05 09:31:04;;;;;;;10.40;3.50;;;15.90;99.90;;;;;;5039421;28;20492;-79
2022/05/05 09:33:34;;;;;;;10.35;3.70;;;16.00;99.90;;;;;;5041361;28;20140;-78
2022/05/05 09:36:02;;;;;;;9.38;4.18;;;16.00;99.90;;;;;;5022816;28;20077;-79
2022/05/05 09:38:52;;;;;;;14.88;5.03;;;16.00;99.90;;;;;;5041666;28;20560;-79
2022/05/05 09:41:20;;;;;;;10.35;3.72;;;16.20;99.90;;;;;;5040941;28;20038;-79
2022/05/05 09:43:47;;;;;;;9.35;4.28;;;16.30;99.90;;;;;;5023330;28;20058;-79
2022/05/05 09:46:36;;;;;;;9.90;4.75;;;16.30;99.90;;;;;;5040143;28;20053;-79
2022/05/05 09:49:13;;;;;;;10.07;4.50;;;16.60;99.90;;;;;;5007724;28;20057;-79
2022/05/05 09:58:02;;;;;;;9.77;5.75;;;16.90;99.90;;;;;;5040330;28;20080;-78
2022/05/05 10:05:48;;;;;;;14.25;4.90;;;17.30;99.90;;;;;;5039342;28;20124;-82
2022/05/05 10:08:18;;;;;;;20.77;5.00;;;17.40;99.90;;;;;;5041252;28;20061;-79
2022/05/05 10:10:45;;;;;;;9.05;4.85;;;17.60;99.90;;;;;;5006672;28;20383;-79
2022/05/05 10:13:13;;;;;;;13.30;5.10;;;17.70;99.90;;;;;;5023749;28;20042;-79
2022/05/05 10:15:39;;;;;;;8.85;4.70;;;17.80;99.90;;;;;;5039721;28;20439;-79
2022/05/05 10:18:06;;;;;;;10.55;5.22;;;17.70;99.90;;;;;;5006758;28;20081;-80
2022/05/05 10:20:33;;;;;;;10.95;4.70;;;17.70;99.90;;;;;;5008532;28;20046;-79
2022/05/05 10:23:11;;;;;;;14.52;5.30;;;17.60;99.90;;;;;;5040285;28;20417;-80
2022/05/05 10:25:39;;;;;;;12.68;5.05;;;17.70;99.90;;;;;;5039697;28;20489;-79
2022/05/05 10:28:44;;;;;;;8.10;4.90;;;17.90;99.90;;;;;;5008585;28;20144;-79
2022/05/05 10:31:12;;;;;;;11.30;5.13;;;18.10;99.90;;;;;;5039164;28;20056;-79
2022/05/05 10:33:56;;;;;;;13.90;5.03;;;18.10;99.90;;;;;;5039110;28;20041;-78
2022/05/05 10:36:23;;;;;;;9.63;5.13;;;18.20;99.90;;;;;;5040314;28;20054;-78
2022/05/05 10:38:51;;;;;;;9.70;5.20;;;18.20;99.90;;;;;;5039355;28;20825;-79
2022/05/05 10:41:31;;;;;;;12.65;5.28;;;18.10;99.90;;;;;;5040225;28;20390;-79
2022/05/05 10:44:22;;;;;;;15.25;6.68;;;18.20;99.90;;;;;;5039012;28;20410;-80
2022/05/05 10:47:01;;;;;;;11.27;5.35;;;18.20;99.90;;;;;;5037705;28;20058;-79
2022/05/05 10:49:31;;;;;;;16.02;5.50;;;18.20;99.90;;;;;;5040037;28;20049;-79
2022/05/05 10:52:16;;;;;;;17.67;5.57;;;18.30;99.90;;;;;;5039512;28;20401;-79
2022/05/05 10:54:47;;;;;;;9.57;5.53;;;18.40;99.90;;;;;;5005391;28;20059;-80
2022/05/05 10:57:24;;;;;;;10.95;4.90;;;18.50;99.90;;;;;;5006917;28;20038;-79
2022/05/05 11:00:14;;;;;;;12.63;5.03;;;18.60;99.90;;;;;;5039052;28;20060;-80
2022/05/05 11:03:01;;;;;;;13.55;5.05;;;18.70;99.90;;;;;;5040144;28;20560;-79
2022/05/05 11:05:35;;;;;;;10.40;4.90;;;18.70;99.90;;;;;;5006314;28;20724;-80
2022/05/05 11:08:08;;;;;;;10.07;4.63;;;18.80;99.90;;;;;;5038709;28;20050;-79
2022/05/05 11:10:45;;;;;;;9.65;4.50;;;18.90;99.90;;;;;;5039330;28;20056;-80
2022/05/05 11:13:33;;;;;;;9.15;4.40;;;19.00;99.90;;;;;;5039476;28;20057;-79
2022/05/05 11:22:18;;;;;;;14.50;5.75;;;19.30;99.90;;;;;;5038521;28;20045;-80
2022/05/05 11:24:46;;;;;;;12.02;5.03;;;19.40;99.90;;;;;;5023365;28;20064;-79
2022/05/05 11:27:14;;;;;;;10.25;4.80;;;19.50;99.90;;;;;;5006636;28;20057;-80
2022/05/05 11:29:40;;;;;;;12.95;5.28;;;19.50;99.90;;;;;;5038887;28;20082;-81
2022/05/05 11:32:08;;;;;;;8.98;5.45;;;19.40;99.90;;;;;;5038548;28;20156;-80
2022/05/05 11:34:37;;;;;;;8.77;4.75;;;19.40;99.90;;;;;;5039885;28;20129;-80
2022/05/05 11:37:05;;;;;;;9.45;5.25;;;19.40;99.90;;;;;;5021618;28;20539;-79
2022/05/05 11:39:33;;;;;;;9.57;5.40;;;19.40;99.90;;;;;;5039904;28;20057;-79
2022/05/05 11:42:00;;;;;;;9.60;4.97;;;19.40;99.90;;;;;;5039162;28;20050;-80
2022/05/05 11:44:27;;;;;;;9.50;4.82;;;19.50;99.90;;;;;;5022532;28;20045;-79
2022/05/05 11:46:55;;;;;;;13.30;5.47;;;19.70;99.90;;;;;;5038420;28;20081;-79
2022/05/05 11:49:21;;;;;;;11.57;5.88;;;19.70;99.90;;;;;;5039543;28;20875;-80
2022/05/05 11:51:48;;;;;;;10.73;6.53;;;19.70;99.90;;;;;;5039312;28;20086;-79
2022/05/05 11:54:23;;;;;;;12.63;6.05;;;19.60;99.90;;;;;;5022890;28;20081;-79
2022/05/05 11:56:50;;;;;;;11.48;6.35;;;19.40;99.90;;;;;;5005134;28;20050;-80
2022/05/05 12:02:12;;;;;;;15.35;7.43;;;19.20;99.90;;;;;;5042553;28;20068;-79
2022/05/05 12:04:44;;;;;;;11.90;7.20;;;19.20;99.90;;;;;;5010951;28;20120;-80
2022/05/05 12:07:20;;;;;;;11.90;6.60;;;19.20;99.90;;;;;;5026582;28;20050;-80
2022/05/05 12:09:49;;;;;;;11.80;6.88;;;19.20;99.90;;;;;;5026051;28;20046;-79
2022/05/05 12:12:18;;;;;;;12.20;6.65;;;19.30;99.90;;;;;;5042503;28;20057;-79
2022/05/05 12:14:49;;;;;;;9.65;5.82;;;19.40;99.90;;;;;;5009589;28;20058;-79
2022/05/05 12:17:18;;;;;;;13.13;6.28;;;19.70;99.90;;;;;;5026171;28;20053;-79
2022/05/05 12:19:52;;;;;;;10.18;6.47;;;20.00;99.90;;;;;;5042659;28;20045;-80
2022/05/05 12:22:29;;;;;;;10.70;7.20;;;20.20;99.90;;;;;;5010257;28;20057;-79
2022/05/05 12:24:57;;;;;;;13.73;6.68;;;20.20;99.90;;;;;;5041610;28;20048;-79
2022/05/05 12:27:25;;;;;;;10.93;6.47;;;20.20;99.90;;;;;;5043378;28;20125;-80
2022/05/05 12:29:51;;;;;;;11.98;6.30;;;20.20;99.30;;;;;;5008823;28;20444;-80
2022/05/05 12:32:18;;;;;;;13.93;6.55;;;20.10;99.90;;;;;;5008502;28;20125;-80
2022/05/05 12:34:46;;;;;;;11.38;7.47;;;20.10;99.90;;;;;;4992642;28;20050;-80
2022/05/05 12:37:11;;;;;;;9.30;5.90;;;20.10;99.20;;;;;;5042344;28;20049;-80
2022/05/05 12:39:56;;;;;;;8.70;5.05;;;20.10;98.60;;;;;;5041012;28;20133;-79
2022/05/05 12:42:23;;;;;;;9.73;4.90;;;20.30;99.00;;;;;;5042279;28;20172;-80
2022/05/05 12:44:50;;;;;;;10.77;4.75;;;20.30;99.90;;;;;;5041458;28;20860;-80
2022/05/05 12:47:24;;;;;;;10.60;5.80;;;20.40;99.90;;;;;;5040947;28;20058;-80
2022/05/05 12:49:49;;;;;;;12.15;5.47;;;20.50;99.90;;;;;;5008397;28;20095;-80
2022/05/05 13:00:43;;;;;;;9.55;6.00;;;20.50;98.20;;;;;;5040123;28;20045;-80
2022/05/05 13:03:09;;;;;;;12.73;5.97;;;20.40;98.40;;;;;;5025190;28;20054;-81
2022/05/05 13:05:36;;;;;;;14.63;6.68;;;20.50;98.20;;;;;;5042166;28;20143;-80
2022/05/05 13:08:01;;;;;;;10.98;6.28;;;20.50;98.70;;;;;;5040376;28;20041;-80
2022/05/05 13:10:27;;;;;;;11.23;6.82;;;20.40;98.50;;;;;;5008031;28;20052;-80
2022/05/05 13:12:52;;;;;;;10.65;6.32;;;20.50;98.30;;;;;;5041201;28;20052;-80
2022/05/05 13:15:18;;;;;;;10.60;6.60;;;20.40;97.50;;;;;;5023714;28;20448;-80
2022/05/05 13:17:44;;;;;;;8.90;5.95;;;20.30;97.10;;;;;;5042174;28;20056;-79
2022/05/05 13:20:10;;;;;;;11.93;5.50;;;20.30;97.70;;;;;;5009837;28;20054;-80
2022/05/05 13:22:36;;;;;;;9.98;5.25;;;20.30;97.50;;;;;;5041119;28;20046;-80
2022/05/05 13:25:01;;;;;;;9.32;5.70;;;20.30;97.00;;;;;;5024521;28;20045;-80
2022/05/05 13:27:27;;;;;;;9.80;4.97;;;20.20;97.40;;;;;;5042082;28;20046;-80
2022/05/05 13:29:53;;;;;;;10.75;5.28;;;20.20;97.90;;;;;;5023307;28;20066;-80
2022/05/05 13:32:18;;;;;;;8.18;4.90;;;20.30;97.30;;;;;;5040810;28;20485;-80
2022/05/05 13:34:44;;;;;;;9.82;5.65;;;20.40;96.50;;;;;;5040638;28;20131;-80
2022/05/05 13:37:10;;;;;;;10.73;5.95;;;20.30;96.00;;;;;;5009582;28;20070;-80
2022/05/05 13:39:36;;;;;;;9.43;5.28;;;20.30;95.90;;;;;;5041629;28;20797;-80
2022/05/05 13:42:03;;;;;;;10.77;4.80;;;20.40;96.30;;;;;;5040704;28;20460;-80
2022/05/05 13:44:28;;;;;;;7.70;4.57;;;20.40;96.30;;;;;;5024456;28;20037;-80